Weather at Hissar Airport

Public forecast

Using degrees Celsius for public forecast. Weather courtesy of forecast.io.

Closest aviation weather report (METAR) to Hissar Airport

Closest report is Indira Gandhi International Airport, 79.8 nm (147.9 km) ESE. Retrieved 2020/11/26 02:30 UTC (41 minutes ago):

VIDP 260230Z 02004KT 1000 R28/1700 R29/1800 BR SCT040 BKN100 17/13 Q1020 NOSIG

Closest aviation forecast (TAF) to Hissar Airport

Closest forecast is Indira Gandhi International Airport, 79.8 nm (147.9 km) ESE. Retrieved 2020-11-26 00:00 UTC (3 hours ago):

TAF VIDP 252300Z 2600/2706 00000KT 1000 BR SCT040 BKN100 BECMG 2604/2606 15004KT 1500 HZ FU SCT040 BKN100 BECMG 2608/2610 14006KT 2000 HZ SCT040 BKN100 TEMPO 2609/2612 FEW040CB BECMG 2617/2619 07005KT 1200 BR BECMG 2700/2702 1000 FU BR BECMG 2604/2605 1200 BR FU